Time;durP1;ratioP1;P1;durP2;ratioP2;P2;SDS_P1;SDS_P2;PMS_P1;PMS_P2;Temp;Humidity;BMP_temperature;BMP_pressure;BME280_temperature;BME280_humidity;BME280_pressure;Samples;Min_cycle;Max_cycle;Signal;HPM_P1;HPM_P2
2022/05/25 00:00:11;;;;;;;20.40;13.65;;;;;;;9.81;89.71;101115.44;4996400;28;20038;-54
2022/05/25 00:02:38;;;;;;;19.88;13.27;;;;;;;9.85;89.64;101129.50;4996478;28;20053;-55
2022/05/25 00:05:05;;;;;;;19.50;13.20;;;;;;;9.82;90.13;101128.13;4996191;28;20085;-54
2022/05/25 00:07:30;;;;;;;19.95;13.95;;;;;;;9.80;89.74;101132.31;4996391;28;20108;-55
2022/05/25 00:09:55;;;;;;;20.60;14.23;;;;;;;9.79;89.86;101134.25;4996193;28;20529;-52
2022/05/25 00:12:21;;;;;;;20.50;13.82;;;;;;;9.73;90.14;101135.41;4996153;28;20050;-54
2022/05/25 00:14:47;;;;;;;20.13;13.95;;;;;;;9.77;89.84;101138.44;4978651;28;20050;-54
2022/05/25 00:17:13;;;;;;;19.70;13.75;;;;;;;9.79;90.15;101141.69;4996190;28;20081;-52
2022/05/25 00:22:22;;;;;;;21.58;13.45;;;;;;;9.76;90.40;101137.59;4996335;28;20054;-54
2022/05/25 00:24:47;;;;;;;19.75;13.73;;;;;;;9.75;90.67;101138.72;4995866;28;20386;-53
2022/05/25 00:27:13;;;;;;;21.15;13.35;;;;;;;9.72;91.17;101144.84;4996066;28;20076;-55
2022/05/25 00:29:38;;;;;;;21.02;13.90;;;;;;;9.71;91.17;101145.94;4996025;28;20413;-54
2022/05/25 00:32:06;;;;;;;20.85;13.93;;;;;;;9.64;91.00;101143.53;4995846;28;20033;-54
2022/05/25 00:34:31;;;;;;;22.52;14.70;;;;;;;9.64;91.54;101151.81;4995720;28;20022;-55
2022/05/25 00:36:56;;;;;;;22.88;14.45;;;;;;;9.59;91.57;101148.28;4995666;28;20536;-55
2022/05/25 00:39:23;;;;;;;21.27;14.27;;;;;;;9.59;91.76;101143.56;4994654;28;20034;-54
2022/05/25 00:41:50;;;;;;;22.60;15.88;;;;;;;9.58;91.80;101146.63;4994775;28;20036;-54
2022/05/25 00:44:15;;;;;;;20.58;14.43;;;;;;;9.61;91.84;101146.06;4995673;28;20026;-55
2022/05/25 00:46:41;;;;;;;21.88;15.57;;;;;;;9.56;91.97;101151.63;4995599;28;20398;-55
2022/05/25 00:49:28;;;;;;;20.10;14.65;;;;;;;9.56;92.45;101149.69;4995706;28;20018;-55
2022/05/25 00:51:58;;;;;;;20.88;15.18;;;;;;;9.54;92.55;101151.91;4995212;28;20387;-56
2022/05/25 00:54:37;;;;;;;21.20;15.15;;;;;;;9.51;92.75;101153.34;4995615;28;20076;-58
2022/05/25 00:57:10;;;;;;;21.90;15.15;;;;;;;9.50;92.69;101145.31;4995440;28;20026;-56
2022/05/25 00:59:46;;;;;;;21.85;15.35;;;;;;;9.49;93.11;101154.75;4994201;28;20110;-55
2022/05/25 01:02:12;;;;;;;21.80;16.02;;;;;;;9.47;92.55;101160.53;4995497;28;20504;-55
2022/05/25 01:04:37;;;;;;;22.45;15.23;;;;;;;9.43;92.89;101162.25;4977794;28;20042;-56
2022/05/25 01:07:21;;;;;;;21.83;14.70;;;;;;;9.41;93.31;101158.09;4995232;28;20062;-55
2022/05/25 01:10:12;;;;;;;22.25;16.00;;;;;;;9.37;93.25;101163.41;4995055;28;20437;-55
2022/05/25 01:12:45;;;;;;;23.55;15.65;;;;;;;9.31;93.10;101167.31;4972413;28;20041;-55
2022/05/25 01:15:20;;;;;;;22.20;15.20;;;;;;;9.28;93.93;101165.97;4995293;28;20085;-54
2022/05/25 01:18:03;;;;;;;22.13;15.88;;;;;;;9.22;93.67;101167.13;4994719;28;20042;-55
2022/05/25 01:20:50;;;;;;;23.85;16.08;;;;;;;9.22;93.97;101167.13;4995232;28;20027;-56
2022/05/25 01:23:42;;;;;;;23.23;16.10;;;;;;;9.16;94.93;101169.09;4994918;28;20482;-54
2022/05/25 01:26:41;;;;;;;22.95;15.82;;;;;;;9.16;94.77;101176.56;4961244;28;20034;-55
2022/05/25 01:29:17;;;;;;;23.92;16.83;;;;;;;9.14;95.01;101176.00;4994810;28;20026;-55
2022/05/25 01:32:01;;;;;;;24.42;17.25;;;;;;;9.13;95.29;101169.69;4994470;28;20026;-54
2022/05/25 01:34:36;;;;;;;25.73;17.27;;;;;;;9.11;95.39;101174.66;4994668;28;20022;-55
2022/05/25 01:37:18;;;;;;;24.00;17.08;;;;;;;9.08;96.00;101172.47;4994354;28;20107;-55
2022/05/25 01:40:09;;;;;;;24.60;17.98;;;;;;;9.02;96.05;101165.34;4994498;28;20401;-54
2022/05/25 01:42:43;;;;;;;24.02;17.45;;;;;;;9.10;96.20;101163.91;4994387;28;20105;-55
2022/05/25 01:45:09;;;;;;;24.75;17.60;;;;;;;9.09;95.79;101176.88;4994710;28;20034;-55
2022/05/25 01:47:39;;;;;;;23.63;17.70;;;;;;;9.04;96.30;101171.41;4994715;28;20098;-54
2022/05/25 01:50:09;;;;;;;23.95;17.40;;;;;;;9.03;96.74;101175.28;4994410;28;20474;-53
2022/05/25 01:52:43;;;;;;;23.77;18.35;;;;;;;9.03;96.90;101169.75;4994035;28;20409;-54
2022/05/25 01:55:14;;;;;;;26.35;17.98;;;;;;;9.01;96.94;101174.75;4994590;28;20564;-54
2022/05/25 01:57:44;;;;;;;26.60;18.40;;;;;;;9.02;96.86;101177.19;4994216;28;20072;-56
2022/05/25 02:00:25;;;;;;;24.65;18.30;;;;;;;8.99;96.94;101182.47;4994236;28;20109;-56
2022/05/25 02:05:40;;;;;;;25.52;18.55;;;;;;;8.91;97.32;101175.66;4994462;28;20053;-56
2022/05/25 02:08:23;;;;;;;23.60;17.20;;;;;;;8.89;97.68;101186.97;4994271;28;20114;-54
2022/05/25 02:11:08;;;;;;;24.45;18.38;;;;;;;8.77;97.90;101169.94;4994007;28;20065;-55
2022/05/25 02:13:48;;;;;;;23.85;17.35;;;;;;;8.82;97.55;101180.94;4994228;28;20063;-55
2022/05/25 02:16:15;;;;;;;23.25;17.60;;;;;;;8.82;96.94;101182.88;4993831;28;20045;-56
2022/05/25 02:18:49;;;;;;;25.52;18.27;;;;;;;8.81;97.99;101184.00;4993671;28;20050;-55
2022/05/25 02:21:29;;;;;;;24.73;18.48;;;;;;;8.79;97.63;101186.22;4993835;28;20034;-56
2022/05/25 02:24:09;;;;;;;24.73;17.45;;;;;;;8.81;97.23;101182.03;4994135;28;20026;-56
2022/05/25 02:26:47;;;;;;;24.08;18.15;;;;;;;8.78;97.96;101187.31;5006769;28;20042;-57
2022/05/25 02:29:27;;;;;;;24.00;18.27;;;;;;;8.75;98.16;101185.97;5013575;28;20112;-54
2022/05/25 02:32:19;;;;;;;25.17;18.58;;;;;;;8.71;98.29;101193.13;5013375;28;20048;-57
2022/05/25 02:34:50;;;;;;;25.15;18.42;;;;;;;8.65;98.14;101186.00;5013236;28;20072;-57
2022/05/25 02:37:19;;;;;;;25.55;18.38;;;;;;;8.64;97.84;101198.16;5013084;28;20378;-56
2022/05/25 02:39:45;;;;;;;24.40;18.65;;;;;;;8.65;98.15;101192.34;5013306;28;20021;-57
2022/05/25 02:42:13;;;;;;;24.88;19.02;;;;;;;8.64;98.42;101200.91;4995381;28;20022;-57
2022/05/25 02:44:39;;;;;;;25.52;17.98;;;;;;;8.61;98.21;101209.75;5013275;28;20026;-58
2022/05/25 02:47:04;;;;;;;25.45;18.25;;;;;;;8.55;98.03;101200.66;5013015;28;20350;-56
2022/05/25 02:49:30;;;;;;;25.05;18.15;;;;;;;8.54;98.57;101205.38;5012967;28;20032;-57
2022/05/25 02:51:55;;;;;;;25.25;18.15;;;;;;;8.54;98.52;101216.41;5013031;28;20026;-55
2022/05/25 02:54:22;;;;;;;25.17;18.80;;;;;;;8.54;98.88;101221.91;5012991;28;20068;-57
2022/05/25 02:56:48;;;;;;;23.90;17.83;;;;;;;8.51;98.79;101213.41;5012920;28;20477;-57
2022/05/25 02:59:13;;;;;;;25.17;18.52;;;;;;;8.48;99.16;101220.31;5013386;28;20079;-58
2022/05/25 03:01:39;;;;;;;26.23;18.60;;;;;;;8.46;98.91;101222.47;5013003;28;20029;-57
2022/05/25 03:04:04;;;;;;;24.80;18.38;;;;;;;8.42;98.77;101216.72;5012456;28;20029;-58
2022/05/25 03:06:29;;;;;;;24.67;17.42;;;;;;;8.43;98.99;101223.03;5012478;28;20174;-57
2022/05/25 03:08:55;;;;;;;24.08;17.73;;;;;;;8.40;98.90;101215.34;5012502;28;20034;-58
2022/05/25 03:11:20;;;;;;;24.40;17.45;;;;;;;8.43;98.84;101231.31;5012615;28;20030;-57
2022/05/25 03:13:47;;;;;;;24.98;17.85;;;;;;;8.42;98.66;101235.16;5012675;28;20022;-56
2022/05/25 03:16:13;;;;;;;25.17;17.90;;;;;;;8.40;98.67;101232.72;5012807;28;20029;-58
2022/05/25 03:18:38;;;;;;;23.95;18.02;;;;;;;8.38;98.82;101240.44;5012476;28;20085;-56
2022/05/25 03:21:04;;;;;;;25.23;16.98;;;;;;;8.35;98.75;101237.41;5012841;28;20022;-57
2022/05/25 03:23:29;;;;;;;24.30;17.92;;;;;;;8.34;98.68;101235.75;5012730;28;20030;-57
2022/05/25 03:25:54;;;;;;;24.75;17.20;;;;;;;8.32;98.85;101232.44;5012444;28;20092;-55
2022/05/25 03:28:19;;;;;;;23.58;17.52;;;;;;;8.32;98.74;101236.03;5012349;28;20041;-58
2022/05/25 03:30:46;;;;;;;24.08;17.02;;;;;;;8.32;98.62;101230.53;5012484;28;20141;-58
2022/05/25 03:33:11;;;;;;;24.30;18.20;;;;;;;8.30;98.91;101237.44;5012351;28;20472;-57
2022/05/25 03:35:37;;;;;;;23.27;17.00;;;;;;;8.26;98.37;101229.72;5012288;28;20052;-57
2022/05/25 03:38:04;;;;;;;22.70;15.98;;;;;;;8.33;98.67;101237.69;5012344;28;20036;-56
2022/05/25 03:40:30;;;;;;;24.80;17.42;;;;;;;8.32;98.56;101238.81;5012260;28;20385;-57
2022/05/25 03:42:55;;;;;;;24.73;17.08;;;;;;;8.33;98.72;101240.47;5012197;28;20096;-57
2022/05/25 03:45:20;;;;;;;24.42;16.73;;;;;;;8.37;98.47;101240.72;5012118;28;20048;-56
2022/05/25 03:47:46;;;;;;;23.58;15.27;;;;;;;8.37;98.53;101249.00;5011661;28;20034;-56
2022/05/25 03:50:12;;;;;;;24.20;16.42;;;;;;;8.39;98.51;101249.53;5011982;28;20496;-56
2022/05/25 03:52:38;;;;;;;21.60;15.15;;;;;;;8.39;98.36;101250.34;5012063;28;20401;-57
2022/05/25 03:55:05;;;;;;;24.25;15.77;;;;;;;8.40;98.15;101251.19;5012087;28;20026;-57
2022/05/25 03:57:31;;;;;;;23.30;15.25;;;;;;;8.45;97.71;101259.44;5012364;28;20032;-57
2022/05/25 03:59:56;;;;;;;23.20;15.38;;;;;;;8.48;97.80;101264.41;5012206;28;20025;-56
2022/05/25 04:02:21;;;;;;;22.52;14.63;;;;;;;8.49;97.77;101260.56;5012202;28;20026;-57
2022/05/25 04:04:47;;;;;;;23.80;14.75;;;;;;;8.48;97.46;101269.09;5011929;28;20022;-57
2022/05/25 04:07:12;;;;;;;22.08;14.57;;;;;;;8.49;97.55;101266.06;5011915;28;20061;-57
2022/05/25 04:09:37;;;;;;;22.15;14.70;;;;;;;8.48;97.80;101269.94;5012002;28;20385;-56
2022/05/25 04:12:03;;;;;;;23.05;14.85;;;;;;;8.47;97.43;101260.00;5012097;28;20025;-58
2022/05/25 04:14:28;;;;;;;23.67;15.38;;;;;;;8.52;97.23;101264.69;5011858;28;20022;-55
2022/05/25 04:16:54;;;;;;;22.88;14.68;;;;;;;8.53;97.22;101269.91;5013474;28;20113;-55
2022/05/25 04:19:19;;;;;;;24.23;14.50;;;;;;;8.53;97.28;101272.66;5015198;28;20057;-55
2022/05/25 04:21:44;;;;;;;21.60;13.70;;;;;;;8.52;97.16;101271.00;5014799;28;20026;-55
2022/05/25 04:24:12;;;;;;;23.50;13.90;;;;;;;8.55;97.09;101269.59;5015142;28;20048;-55
2022/05/25 04:26:37;;;;;;;22.98;14.50;;;;;;;8.57;97.25;101265.50;5014829;28;20022;-55
2022/05/25 04:29:02;;;;;;;22.70;13.95;;;;;;;8.61;97.37;101265.75;5015149;28;20025;-54
2022/05/25 04:31:28;;;;;;;23.27;14.50;;;;;;;8.66;96.95;101271.22;5015157;28;20028;-56
2022/05/25 04:33:54;;;;;;;21.15;13.98;;;;;;;8.69;97.00;101276.19;5014654;28;20026;-55
2022/05/25 04:36:19;;;;;;;21.73;14.05;;;;;;;8.74;96.86;101278.09;5013936;28;20038;-55
2022/05/25 04:38:46;;;;;;;23.60;13.82;;;;;;;8.79;96.83;101283.56;5014829;28;20093;-55
2022/05/25 04:41:11;;;;;;;22.45;13.85;;;;;;;8.83;96.94;101281.91;5014997;28;20041;-53
2022/05/25 04:43:37;;;;;;;22.08;13.75;;;;;;;8.86;97.35;101275.00;5014989;28;20051;-55
2022/05/25 04:46:08;;;;;;;20.85;13.32;;;;;;;8.91;96.41;101280.50;5014904;28;20561;-56
2022/05/25 04:48:33;;;;;;;21.90;13.45;;;;;;;8.94;96.69;101287.38;5014941;28;20037;-55
2022/05/25 04:50:58;;;;;;;23.95;14.15;;;;;;;9.01;96.39;101287.88;5014806;28;20031;-55
2022/05/25 04:53:24;;;;;;;22.10;14.35;;;;;;;9.09;95.79;101292.81;5014750;28;20033;-55
2022/05/25 04:58:40;;;;;;;23.13;13.48;;;;;;;9.23;96.06;101284.72;5014626;28;20041;-56
2022/05/25 05:01:08;;;;;;;22.25;13.82;;;;;;;9.28;95.35;101289.38;5014871;28;20042;-55
2022/05/25 05:03:35;;;;;;;22.77;13.25;;;;;;;9.34;94.82;101293.75;5014527;28;20026;-56
2022/05/25 05:06:00;;;;;;;21.92;14.00;;;;;;;9.41;94.88;101293.41;4996837;28;20018;-55
2022/05/25 05:08:26;;;;;;;21.38;13.38;;;;;;;9.45;94.91;101298.09;5014470;28;20051;-56
2022/05/25 05:10:52;;;;;;;22.50;13.88;;;;;;;9.50;94.65;101303.59;5014399;28;20026;-56
2022/05/25 05:13:18;;;;;;;21.40;14.02;;;;;;;9.55;94.66;101304.63;5013676;28;20038;-56
2022/05/25 05:15:51;;;;;;;21.38;13.55;;;;;;;9.59;94.83;101294.69;5013794;28;20084;-56
2022/05/25 05:18:18;;;;;;;21.60;13.37;;;;;;;9.68;93.90;101296.53;5014608;28;20050;-56
2022/05/25 05:20:43;;;;;;;21.13;13.40;;;;;;;9.78;93.66;101303.06;5014423;28;20273;-56
2022/05/25 05:23:08;;;;;;;21.13;13.10;;;;;;;9.81;93.52;101297.81;5014520;28;20119;-56
2022/05/25 05:25:35;;;;;;;23.17;13.90;;;;;;;9.83;93.47;101295.56;5013874;28;20034;-57
2022/05/25 05:28:09;;;;;;;21.45;13.18;;;;;;;9.88;93.37;101288.34;5013191;28;20092;-58
2022/05/25 05:30:40;;;;;;;21.17;12.75;;;;;;;9.98;92.97;101291.03;5014227;28;20045;-56
2022/05/25 05:33:05;;;;;;;22.80;13.18;;;;;;;10.10;92.72;101287.84;5014040;28;20145;-56
2022/05/25 05:35:32;;;;;;;21.52;13.13;;;;;;;10.13;92.58;101287.28;5014017;28;20180;-57
2022/05/25 05:37:58;;;;;;;21.80;13.38;;;;;;;10.18;92.68;101283.66;5014000;28;20113;-59
2022/05/25 05:40:24;;;;;;;22.08;13.10;;;;;;;10.20;92.14;101285.00;5013955;28;20026;-57
2022/05/25 05:42:53;;;;;;;23.45;13.70;;;;;;;10.26;91.88;101281.03;5013804;28;20030;-57
2022/05/25 05:45:32;;;;;;;20.23;13.25;;;;;;;10.37;91.76;101280.94;5013879;28;20045;-57
2022/05/25 05:48:11;;;;;;;23.10;13.10;;;;;;;10.40;92.13;101278.44;5013926;28;20493;-57
2022/05/25 05:50:38;;;;;;;23.05;12.98;;;;;;;10.47;91.84;101278.09;5014138;28;20030;-56
2022/05/25 05:53:04;;;;;;;21.90;13.40;;;;;;;10.53;91.44;101276.09;5013355;28;20035;-56
2022/05/25 05:55:29;;;;;;;21.77;13.50;;;;;;;10.58;91.25;101279.63;5013444;28;20076;-56
2022/05/25 05:57:55;;;;;;;22.83;13.75;;;;;;;10.64;90.77;101271.22;5013061;28;20072;-58
2022/05/25 06:00:20;;;;;;;20.80;12.65;;;;;;;10.67;91.06;101277.03;5012921;28;20026;-56
2022/05/25 06:02:46;;;;;;;21.25;13.05;;;;;;;10.73;91.00;101284.13;5011117;28;20034;-57
2022/05/25 06:05:12;;;;;;;21.77;13.27;;;;;;;10.84;90.50;101284.00;5013744;28;20097;-59
2022/05/25 06:07:37;;;;;;;21.88;13.23;;;;;;;10.91;89.93;101288.03;5013510;28;20037;-59
2022/05/25 06:10:04;;;;;;;21.60;13.00;;;;;;;10.90;89.87;101280.03;5013409;28;20026;-57
2022/05/25 06:12:31;;;;;;;20.95;12.48;;;;;;;11.02;89.88;101294.28;4995614;28;20396;-58
2022/05/25 06:14:56;;;;;;;21.98;12.68;;;;;;;11.07;90.10;101287.84;5013296;28;20034;-58
2022/05/25 06:20:06;;;;;;;22.45;13.45;;;;;;;11.31;88.10;101295.22;5012823;28;20037;-58
2022/05/25 06:22:32;;;;;;;24.00;13.02;;;;;;;11.40;88.13;101304.50;5011688;28;20030;-57
2022/05/25 06:24:58;;;;;;;23.80;13.15;;;;;;;11.51;87.99;101308.78;5012915;28;20034;-57
2022/05/25 06:27:23;;;;;;;20.25;12.80;;;;;;;11.61;87.41;101307.81;4994706;28;20045;-58
2022/05/25 06:29:49;;;;;;;23.67;13.48;;;;;;;11.70;86.26;101305.16;5013166;28;20057;-57
2022/05/25 06:32:20;;;;;;;22.90;13.43;;;;;;;11.74;86.22;101308.13;5013165;28;20034;-58
2022/05/25 06:34:47;;;;;;;22.60;13.85;;;;;;;11.78;85.93;101312.78;5013199;28;20022;-57
2022/05/25 06:37:20;;;;;;;22.52;13.38;;;;;;;11.84;85.23;101316.28;5013133;28;20053;-58
2022/05/25 06:39:45;;;;;;;23.77;13.88;;;;;;;11.93;85.29;101310.88;5012375;28;20441;-57
2022/05/25 06:42:11;;;;;;;23.83;14.18;;;;;;;12.00;85.66;101314.09;5012971;28;20053;-57
2022/05/25 06:44:37;;;;;;;23.30;14.13;;;;;;;12.06;84.95;101328.69;5012882;28;20030;-58
2022/05/25 06:47:03;;;;;;;23.00;14.30;;;;;;;12.14;84.72;101323.25;5012899;28;20026;-58
2022/05/25 06:49:29;;;;;;;23.35;14.27;;;;;;;12.31;83.76;101327.41;5013058;28;20033;-58
2022/05/25 06:51:55;;;;;;;22.88;14.90;;;;;;;12.48;83.51;101327.63;5012772;28;20029;-58
2022/05/25 06:54:21;;;;;;;24.10;14.25;;;;;;;12.64;83.53;101322.63;5012888;28;20047;-57
2022/05/25 06:56:46;;;;;;;23.65;15.68;;;;;;;12.80;82.09;101327.84;5013118;28;20469;-57
2022/05/25 06:59:13;;;;;;;25.55;15.18;;;;;;;12.92;81.52;101338.41;5012691;28;20497;-60
2022/05/25 07:01:40;;;;;;;24.67;16.77;;;;;;;13.03;80.30;101330.72;5012658;28;20040;-58
2022/05/25 07:04:07;;;;;;;24.42;16.73;;;;;;;13.13;80.20;101329.66;5012666;28;20124;-58
2022/05/25 07:06:35;;;;;;;24.23;16.45;;;;;;;13.23;79.23;101338.56;5012700;28;20072;-58
2022/05/25 07:09:00;;;;;;;23.73;17.52;;;;;;;13.31;78.84;101348.13;5012545;28;20038;-58
2022/05/25 07:11:25;;;;;;;24.90;17.27;;;;;;;13.31;78.20;101339.78;5012547;28;20030;-58
2022/05/25 07:13:52;;;;;;;24.63;18.05;;;;;;;13.34;78.95;101347.50;5012768;28;20404;-58
2022/05/25 07:16:20;;;;;;;25.30;19.23;;;;;;;13.27;78.37;101347.94;5012559;28;20025;-58
2022/05/25 07:18:46;;;;;;;26.92;18.90;;;;;;;13.38;78.98;101354.06;5012052;28;20081;-58
2022/05/25 07:21:15;;;;;;;27.10;20.33;;;;;;;13.42;78.14;101345.97;5012635;28;20422;-59
2022/05/25 07:23:42;;;;;;;27.25;21.05;;;;;;;13.65;78.13;101365.47;5012516;28;20029;-59
2022/05/25 07:26:09;;;;;;;27.83;19.70;;;;;;;13.80;76.09;101361.50;5012472;28;20104;-57
2022/05/25 07:28:36;;;;;;;26.58;20.42;;;;;;;13.79;76.76;101373.75;5012511;28;20037;-58
2022/05/25 07:31:18;;;;;;;25.92;19.65;;;;;;;13.88;76.48;101364.34;5012462;28;20069;-59
2022/05/25 07:33:48;;;;;;;25.70;18.17;;;;;;;14.02;75.97;101372.63;5012894;28;20033;-58
2022/05/25 07:36:14;;;;;;;25.45;18.10;;;;;;;14.08;75.92;101369.69;5011177;28;20033;-54
2022/05/25 07:38:44;;;;;;;24.38;17.00;;;;;;;14.09;74.75;101369.38;4994850;28;20025;-57
2022/05/25 07:41:10;;;;;;;24.13;16.75;;;;;;;14.07;74.84;101373.63;5012565;28;20038;-58
2022/05/25 07:43:38;;;;;;;23.67;16.55;;;;;;;14.00;75.23;101371.28;5012430;28;20026;-58
2022/05/25 07:46:03;;;;;;;23.35;15.75;;;;;;;13.95;75.28;101368.63;5012403;28;20041;-58
2022/05/25 07:48:29;;;;;;;22.70;15.85;;;;;;;14.07;75.06;101379.19;5012152;28;20028;-57
2022/05/25 07:50:54;;;;;;;23.38;15.95;;;;;;;14.15;74.36;101370.91;5014373;28;20026;-57
2022/05/25 07:56:04;;;;;;;;;;;;;;;14.46;74.46;101372.03;5014647;28;20099;-57
2022/05/25 07:58:30;;;;;;;22.35;14.93;;;;;;;14.43;72.28;101372.69;5013522;28;19913;-57
2022/05/25 08:01:01;;;;;;;23.02;15.73;;;;;;;14.31;72.97;101370.50;5013677;28;20041;-56
2022/05/25 08:06:10;;;;;;;;;;;;;;;14.35;73.67;101371.50;5014551;28;20121;-58
2022/05/25 08:08:36;;;;;;;23.48;16.15;;;;;;;14.21;73.44;101374.38;5012392;28;20003;-57
2022/05/25 08:11:09;;;;;;;21.33;15.68;;;;;;;14.26;72.72;101376.22;5013707;28;20037;-56
2022/05/25 08:13:37;;;;;;;21.20;15.10;;;;;;;14.20;73.51;101378.28;5013693;28;20539;-57
2022/05/25 08:16:03;;;;;;;22.25;15.70;;;;;;;14.31;73.19;101384.41;5011052;28;20105;-57
2022/05/25 08:18:28;;;;;;;22.77;15.80;;;;;;;14.35;73.13;101375.09;5012986;28;20053;-57
2022/05/25 08:20:53;;;;;;;23.15;15.45;;;;;;;14.41;73.18;101381.34;5013023;28;20028;-57
2022/05/25 08:23:19;;;;;;;22.73;14.70;;;;;;;14.54;72.24;101384.38;5013124;28;20022;-57
2022/05/25 08:25:45;;;;;;;23.80;15.38;;;;;;;14.66;71.96;101391.00;5013087;28;20037;-57
2022/05/25 08:28:11;;;;;;;20.77;15.02;;;;;;;14.73;71.27;101386.94;5012742;28;20029;-57
2022/05/25 08:30:39;;;;;;;21.98;14.88;;;;;;;14.77;70.93;101379.59;5013037;28;20030;-56
2022/05/25 08:33:05;;;;;;;21.08;13.65;;;;;;;14.84;70.16;101374.38;5013025;28;20052;-55
2022/05/25 08:35:30;;;;;;;23.65;14.40;;;;;;;14.99;71.89;101373.09;5013706;28;20454;-58
2022/05/25 08:37:57;;;;;;;22.05;13.93;;;;;;;15.10;69.91;101368.88;5013046;28;20200;-56
2022/05/25 08:40:23;;;;;;;21.33;14.52;;;;;;;15.22;70.79;101361.81;5012836;28;20396;-57
2022/05/25 08:42:58;;;;;;;21.30;13.45;;;;;;;15.37;70.01;101364.16;5012806;28;20759;-57
2022/05/25 08:45:31;;;;;;;20.27;12.60;;;;;;;15.48;67.91;101361.88;5013144;28;20037;-57
2022/05/25 08:48:00;;;;;;;20.80;12.75;;;;;;;15.63;68.04;101365.34;5013075;28;20128;-58
2022/05/25 08:50:25;;;;;;;20.17;12.52;;;;;;;15.70;67.42;101374.03;5011632;28;20034;-58
2022/05/25 08:52:56;;;;;;;19.70;12.13;;;;;;;15.71;65.79;101364.50;5012750;28;20036;-58
2022/05/25 08:55:46;;;;;;;18.30;11.40;;;;;;;15.81;66.42;101366.13;5012737;28;20666;-57
2022/05/25 08:58:12;;;;;;;19.80;12.20;;;;;;;15.88;66.33;101363.69;5012735;28;20465;-58
2022/05/25 09:00:40;;;;;;;18.92;11.85;;;;;;;15.90;64.64;101353.84;5012603;28;20125;-58
2022/05/25 09:03:25;;;;;;;19.67;11.32;;;;;;;16.13;65.84;101352.81;5011940;28;20022;-58
2022/05/25 09:06:00;;;;;;;19.30;11.00;;;;;;;16.25;64.23;101366.09;5012714;28;20113;-57
2022/05/25 09:08:37;;;;;;;16.95;10.50;;;;;;;16.34;63.95;101366.88;5011047;28;20454;-59
2022/05/25 09:11:13;;;;;;;19.75;11.05;;;;;;;16.39;62.83;101355.53;5012356;28;20053;-56
2022/05/25 09:13:44;;;;;;;19.30;11.35;;;;;;;16.44;61.64;101358.16;5012277;28;20499;-58
2022/05/25 09:16:16;;;;;;;18.90;11.10;;;;;;;16.50;62.25;101359.59;5012246;28;20472;-56
2022/05/25 09:18:44;;;;;;;18.52;10.13;;;;;;;16.48;61.03;101370.28;5012575;28;20062;-57
2022/05/25 09:21:09;;;;;;;17.42;10.10;;;;;;;16.44;60.38;101362.91;5012767;28;20080;-65
2022/05/25 09:23:36;;;;;;;16.33;9.30;;;;;;;16.47;59.65;101365.88;5012690;28;20037;-60
2022/05/25 09:26:01;;;;;;;18.77;9.82;;;;;;;16.43;60.44;101364.88;5011865;28;20392;-59
2022/05/25 09:28:39;;;;;;;16.10;9.40;;;;;;;16.46;59.88;101364.22;5012642;28;20038;-65
2022/05/25 09:31:06;;;;;;;16.67;9.55;;;;;;;16.67;58.52;101369.09;5012939;28;20033;-59
2022/05/25 09:33:56;;;;;;;15.20;9.45;;;;;;;17.01;58.58;101372.88;5012579;28;20033;-60
2022/05/25 09:36:28;;;;;;;15.95;9.20;;;;;;;17.31;56.15;101373.69;5012254;28;20029;-63
2022/05/25 09:39:14;;;;;;;14.48;9.10;;;;;;;17.66;54.63;101378.19;5012348;28;20369;-57
2022/05/25 09:41:44;;;;;;;16.17;9.27;;;;;;;17.77;53.64;101371.03;5011981;28;20425;-58
2022/05/25 09:44:15;;;;;;;14.45;9.20;;;;;;;17.91;53.62;101362.34;5012449;28;20034;-59
2022/05/25 09:46:50;;;;;;;15.88;8.50;;;;;;;18.16;53.70;101376.44;5012397;28;20119;-60
2022/05/25 09:49:47;;;;;;;13.82;8.73;;;;;;;18.26;52.29;101382.75;5012414;28;20447;-60
2022/05/25 09:52:43;;;;;;;15.25;8.63;;;;;;;18.19;52.76;101377.72;5000113;28;20034;-60
2022/05/25 09:55:42;;;;;;;11.82;7.90;;;;;;;18.26;51.58;101382.75;5002380;28;20080;-59
2022/05/25 09:58:13;;;;;;;13.57;9.00;;;;;;;18.00;51.28;101376.25;5012098;28;20041;-65
2022/05/25 10:00:43;;;;;;;15.10;8.55;;;;;;;17.89;50.48;101392.63;5012201;28;20032;-60
2022/05/25 10:03:37;;;;;;;14.07;8.80;;;;;;;17.91;51.19;101401.53;5012226;28;20033;-59
2022/05/25 10:06:41;;;;;;;13.65;9.00;;;;;;;17.95;50.69;101389.66;5005562;28;20076;-57
2022/05/25 10:09:23;;;;;;;15.07;8.85;;;;;;;18.15;49.98;101397.19;5005414;28;20497;-57
2022/05/25 10:11:55;;;;;;;13.45;8.65;;;;;;;17.93;49.97;101385.22;5011483;28;20030;-57
2022/05/25 10:14:28;;;;;;;12.55;8.77;;;;;;;17.99;49.66;101393.41;5010179;28;20056;-57
2022/05/25 10:17:21;;;;;;;11.93;8.50;;;;;;;18.13;49.76;101376.31;5011261;28;20568;-57
2022/05/25 10:19:50;;;;;;;13.85;8.82;;;;;;;18.27;48.54;101381.59;5008865;28;20058;-58
2022/05/25 10:22:36;;;;;;;12.10;8.43;;;;;;;18.41;49.50;101382.13;5011069;28;20033;-58
2022/05/25 10:25:12;;;;;;;13.40;8.82;;;;;;;18.34;47.63;101385.47;5010995;28;20025;-57
2022/05/25 10:27:40;;;;;;;11.93;8.80;;;;;;;18.31;48.07;101379.75;5011131;28;20096;-57
2022/05/25 10:39:11;;;;;;;13.95;8.30;;;;;;;18.98;45.57;101376.81;5010923;28;20123;-58
2022/05/25 10:41:41;;;;;;;12.38;7.97;;;;;;;18.97;43.45;101376.00;5010754;28;20097;-59
2022/05/25 10:44:14;;;;;;;14.13;8.20;;;;;;;18.96;44.84;101362.34;5011165;28;20485;-58
2022/05/25 10:46:42;;;;;;;8.98;7.70;;;;;;;18.95;43.12;101360.69;5010907;28;20520;-57
2022/05/25 10:49:34;;;;;;;12.68;7.90;;;;;;;18.97;44.98;101356.38;5010971;28;20109;-60
2022/05/25 10:52:08;;;;;;;12.68;7.85;;;;;;;19.17;45.66;101371.44;5010738;28;20038;-58
2022/05/25 10:54:47;;;;;;;11.75;7.82;;;;;;;19.29;44.41;101367.78;5009421;28;20057;-58
2022/05/25 10:57:34;;;;;;;13.20;7.90;;;;;;;19.40;44.59;101365.31;5010649;28;20053;-57
2022/05/25 11:00:03;;;;;;;12.90;8.07;;;;;;;19.36;43.51;101355.13;5010729;28;20044;-57
2022/05/25 11:02:45;;;;;;;10.98;8.10;;;;;;;19.53;43.80;101349.25;5010461;28;20030;-57
2022/05/25 11:05:13;;;;;;;10.93;8.00;;;;;;;19.71;41.98;101362.97;5010504;28;20120;-57
2022/05/25 11:07:40;;;;;;;12.07;8.50;;;;;;;19.55;42.10;101349.72;5010274;28;20045;-57
2022/05/25 11:10:24;;;;;;;13.02;8.15;;;;;;;19.65;42.63;101362.41;5008933;28;20109;-57
2022/05/25 11:13:01;;;;;;;;;;;;;;;19.71;42.22;101355.38;5010916;28;20049;-57
2022/05/25 11:15:39;;;;;;;12.25;7.82;;;;;;;19.59;42.65;101358.22;5010539;28;19917;-57
2022/05/25 11:18:14;;;;;;;11.95;7.85;;;;;;;19.75;43.04;101358.31;5010248;28;20594;-58
2022/05/25 11:21:02;;;;;;;13.93;7.97;;;;;;;19.83;42.41;101354.50;5009289;28;20050;-56
2022/05/25 11:23:55;;;;;;;14.35;7.82;;;;;;;19.84;42.75;101344.13;4992991;28;20105;-59
2022/05/25 11:26:30;;;;;;;11.90;7.82;;;;;;;19.80;41.04;101350.44;4996128;28;20465;-58
2022/05/25 11:29:18;;;;;;;12.38;8.15;;;;;;;19.90;42.27;101337.91;4997021;28;20101;-59
2022/05/25 11:32:06;;;;;;;14.05;8.43;;;;;;;19.97;41.76;101350.53;4995700;28;20068;-59
2022/05/25 11:34:38;;;;;;;12.80;8.10;;;;;;;19.97;42.03;101351.31;4996693;28;20030;-58
2022/05/25 11:37:18;;;;;;;13.35;8.50;;;;;;;20.08;42.37;101341.22;4996775;28;20031;-58
2022/05/25 11:39:52;;;;;;;11.20;7.80;;;;;;;20.27;42.49;101345.31;4996444;28;20490;-57
2022/05/25 11:42:48;;;;;;;12.82;8.13;;;;;;;20.36;42.16;101339.50;4996671;28;20377;-56
2022/05/25 11:45:15;;;;;;;11.73;7.57;;;;;;;20.41;41.78;101345.66;4996783;28;20509;-57
2022/05/25 11:48:05;;;;;;;10.48;7.30;;;;;;;20.47;41.90;101332.16;4996779;28;20031;-58
2022/05/25 11:50:57;;;;;;;11.27;7.72;;;;;;;20.64;41.51;101342.25;4996562;28;20041;-59
2022/05/25 11:53:47;;;;;;;13.50;8.20;;;;;;;20.73;40.47;101342.06;4996794;28;20081;-57
2022/05/25 11:56:28;;;;;;;11.90;7.78;;;;;;;20.44;39.98;101348.94;4996442;28;20071;-59